Time,TemperatureF,DewpointF,PressureIn,WindDirection,WindDirectionDegrees,WindSpeedMPH,WindSpeedGustMPH,Humidity,HourlyPrecipIn,Conditions,Clouds,dailyrainin,SoftwareType,DateUTC
2013-07-15 00:01:00,70.7,68.3,30.35,NNE,23,0.0,0.9,92,0.00,,,0.00,WUHU216HW,2013-07-15 04:01:00,
2013-07-15 00:02:00,70.7,68.3,30.35,NNE,23,0.0,0.9,92,0.00,,,0.00,WUHU216HW,2013-07-15 04:02:00,
2013-07-15 00:07:00,70.6,68.1,30.35,NNE,23,0.0,0.4,92,0.01,,,0.01,WUHU216HW,2013-07-15 04:07:00,
2013-07-15 00:12:00,70.6,68.1,30.35,NNE,23,0.0,0.0,92,0.01,,,0.01,WUHU216HW,2013-07-15 04:12:00,
2013-07-15 00:17:00,70.6,68.1,30.35,NNE,23,0.0,0.0,92,0.01,,,0.01,WUHU216HW,2013-07-15 04:17:00,
2013-07-15 00:22:00,70.4,68.0,30.35,North,0,0.0,0.0,92,0.01,,,0.01,WUHU216HW,2013-07-15 04:22:00,
2013-07-15 00:28:00,70.2,67.8,30.36,NNE,23,0.4,0.4,92,0.01,,,0.01,WUHU216HW,2013-07-15 04:28:00,
2013-07-15 00:33:00,70.2,67.8,30.35,NNE,23,0.4,0.4,92,0.01,,,0.01,WUHU216HW,2013-07-15 04:33:00,
2013-07-15 00:38:00,70.2,67.8,30.36,NNE,23,0.0,0.4,92,0.01,,,0.01,WUHU216HW,2013-07-15 04:38:00,
2013-07-15 00:43:00,70.2,68.0,30.36,North,0,0.4,0.4,93,0.01,,,0.01,WUHU216HW,2013-07-15 04:43:00,
2013-07-15 00:48:00,70.2,67.8,30.36,NNE,23,0.4,0.4,92,0.01,,,0.01,WUHU216HW,2013-07-15 04:48:00,
2013-07-15 00:53:00,70.2,68.0,30.36,NNE,23,0.9,0.9,93,0.01,,,0.01,WUHU216HW,2013-07-15 04:53:00,
2013-07-15 00:58:00,70.2,68.0,30.36,NNE,23,0.0,0.9,93,0.01,,,0.01,WUHU216HW,2013-07-15 04:58:00,
2013-07-15 01:04:00,70.0,67.9,30.36,NNE,23,0.4,0.9,93,0.01,,,0.01,WUHU216HW,2013-07-15 05:04:00,
2013-07-15 01:09:00,70.0,67.9,30.36,NNE,23,0.4,0.4,93,0.00,,,0.01,WUHU216HW,2013-07-15 05:09:00,
2013-07-15 01:14:00,70.0,67.9,30.36,North,0,0.0,0.4,93,0.00,,,0.01,WUHU216HW,2013-07-15 05:14:00,
2013-07-15 01:19:00,69.8,67.7,30.36,North,0,0.0,0.0,93,0.00,,,0.01,WUHU216HW,2013-07-15 05:19:00,
2013-07-15 01:24:00,69.8,67.7,30.36,North,0,1.3,1.3,93,0.00,,,0.01,WUHU216HW,2013-07-15 05:24:00,
2013-07-15 01:29:00,69.8,67.7,30.36,NE,45,1.1,1.3,93,0.00,,,0.01,WUHU216HW,2013-07-15 05:29:00,
2013-07-15 01:34:00,69.8,67.7,30.36,NNE,23,1.3,1.3,93,0.00,,,0.01,WUHU216HW,2013-07-15 05:34:00,
2013-07-15 01:39:00,69.8,67.7,30.36,North,6,0.5,1.3,93,0.00,,,0.01,WUHU216HW,2013-07-15 05:39:00,
2013-07-15 01:44:00,69.8,67.7,30.36,NNE,23,1.3,1.3,93,0.00,,,0.01,WUHU216HW,2013-07-15 05:44:00,
2013-07-15 01:50:00,69.8,67.7,30.36,North,0,0.4,1.3,93,0.00,,,0.01,WUHU216HW,2013-07-15 05:50:00,
2013-07-15 01:55:00,69.8,67.7,30.36,NNE,23,1.0,1.3,93,0.00,,,0.01,WUHU216HW,2013-07-15 05:55:00,
2013-07-15 02:00:00,69.8,67.7,30.36,NNE,23,0.7,1.1,93,0.00,,,0.01,WUHU216HW,2013-07-15 06:00:00,
2013-07-15 02:05:00,69.8,68.1,30.36,NNE,23,1.1,1.1,94,0.00,,,0.01,WUHU216HW,2013-07-15 06:05:00,
2013-07-15 02:10:00,69.8,68.1,30.36,NE,45,1.8,1.8,94,0.00,,,0.01,WUHU216HW,2013-07-15 06:10:00,
2013-07-15 02:15:00,69.8,68.1,30.36,NE,34,1.7,1.8,94,0.00,,,0.01,WUHU216HW,2013-07-15 06:15:00,
2013-07-15 02:20:00,69.7,67.9,30.36,NE,45,1.1,1.8,94,0.00,,,0.01,WUHU216HW,2013-07-15 06:20:00,
2013-07-15 02:25:00,69.7,67.9,30.36,NE,43,1.1,1.6,94,0.00,,,0.01,WUHU216HW,2013-07-15 06:25:00,
2013-07-15 02:30:00,69.7,67.9,30.36,NE,45,1.6,1.6,94,0.00,,,0.01,WUHU216HW,2013-07-15 06:30:00,
2013-07-15 02:36:00,69.7,67.9,30.36,North,0,2.0,2.0,94,0.00,,,0.01,WUHU216HW,2013-07-15 06:36:00,
2013-07-15 02:41:00,69.5,67.7,30.36,North,0,1.3,2.0,94,0.00,,,0.01,WUHU216HW,2013-07-15 06:41:00,
2013-07-15 02:46:00,69.5,67.7,30.36,North,0,0.0,2.0,94,0.00,,,0.01,WUHU216HW,2013-07-15 06:46:00,
2013-07-15 02:51:00,69.5,67.7,30.36,North,0,1.1,1.1,94,0.00,,,0.01,WUHU216HW,2013-07-15 06:51:00,
2013-07-15 02:56:00,69.5,67.7,30.36,North,0,1.1,1.1,94,0.00,,,0.01,WUHU216HW,2013-07-15 06:56:00,
2013-07-15 03:01:00,69.5,67.7,30.36,ENE,68,0.9,1.1,94,0.00,,,0.01,WUHU216HW,2013-07-15 07:01:00,
2013-07-15 03:06:00,69.5,67.7,30.36,NE,45,1.1,1.1,94,0.00,,,0.01,WUHU216HW,2013-07-15 07:06:00,
2013-07-15 03:11:00,69.3,67.5,30.35,NNE,31,0.8,1.1,94,0.00,,,0.01,WUHU216HW,2013-07-15 07:11:00,
2013-07-15 03:16:00,69.3,67.5,30.35,NE,45,0.9,1.1,94,0.00,,,0.01,WUHU216HW,2013-07-15 07:16:00,
2013-07-15 03:22:00,69.3,67.5,30.36,NNE,23,0.4,0.9,94,0.00,,,0.01,WUHU216HW,2013-07-15 07:22:00,
2013-07-15 03:27:00,69.3,67.5,30.36,North,1,0.8,0.9,94,0.00,,,0.01,WUHU216HW,2013-07-15 07:27:00,
2013-07-15 03:32:00,69.3,67.5,30.36,North,0,0.4,0.9,94,0.00,,,0.01,WUHU216HW,2013-07-15 07:32:00,
2013-07-15 03:37:00,69.1,67.3,30.36,North,0,0.4,0.4,94,0.00,,,0.01,WUHU216HW,2013-07-15 07:37:00,
2013-07-15 03:42:00,69.1,67.3,30.36,NNE,23,1.6,1.6,94,0.00,,,0.01,WUHU216HW,2013-07-15 07:42:00,
2013-07-15 03:47:00,68.9,67.2,30.36,North,0,0.9,1.6,94,0.00,,,0.01,WUHU216HW,2013-07-15 07:47:00,
2013-07-15 03:52:00,68.9,67.2,30.36,North,0,0.4,1.6,94,0.00,,,0.01,WUHU216HW,2013-07-15 07:52:00,
2013-07-15 03:57:00,68.9,67.2,30.36,NE,45,1.3,1.3,94,0.00,,,0.01,WUHU216HW,2013-07-15 07:57:00,
2013-07-15 04:02:00,68.9,67.2,30.36,NNE,23,1.3,1.3,94,0.00,,,0.01,WUHU216HW,2013-07-15 08:02:00,
2013-07-15 04:07:00,68.9,67.2,30.36,North,2,1.0,1.3,94,0.00,,,0.01,WUHU216HW,2013-07-15 08:07:00,
2013-07-15 04:12:00,68.8,67.0,30.36,NNE,23,0.7,1.3,94,0.00,,,0.01,WUHU216HW,2013-07-15 08:12:00,
2013-07-15 04:17:00,68.8,67.0,30.36,North,0,0.4,0.7,94,0.00,,,0.01,WUHU216HW,2013-07-15 08:17:00,
2013-07-15 04:22:00,68.8,67.0,30.36,NNE,23,0.0,0.4,94,0.00,,,0.01,WUHU216HW,2013-07-15 08:22:00,
2013-07-15 04:27:00,68.8,67.0,30.36,NNE,23,1.1,1.1,94,0.00,,,0.01,WUHU216HW,2013-07-15 08:27:00,
2013-07-15 04:32:00,68.8,67.0,30.36,North,0,1.1,1.1,94,0.00,,,0.01,WUHU216HW,2013-07-15 08:32:00,
2013-07-15 04:37:00,68.8,67.0,30.36,North,0,1.3,1.3,94,0.00,,,0.01,WUHU216HW,2013-07-15 08:37:00,
2013-07-15 04:42:00,68.9,67.2,30.36,NNW,338,1.6,1.6,94,0.00,,,0.01,WUHU216HW,2013-07-15 08:42:00,
2013-07-15 04:47:00,68.9,67.2,30.36,NNE,23,2.0,2.0,94,0.00,,,0.01,WUHU216HW,2013-07-15 08:47:00,
2013-07-15 04:52:00,68.9,67.2,30.36,NNE,23,1.3,2.0,94,0.00,,,0.01,WUHU216HW,2013-07-15 08:52:00,
2013-07-15 04:57:00,68.9,67.2,30.36,NNW,338,2.7,2.7,94,0.00,,,0.01,WUHU216HW,2013-07-15 08:57:00,
2013-07-15 05:02:00,68.9,67.2,30.36,North,355,1.5,2.7,94,0.00,,,0.01,WUHU216HW,2013-07-15 09:02:00,
2013-07-15 05:07:00,68.9,67.2,30.36,NNE,23,1.8,2.7,94,0.00,,,0.01,WUHU216HW,2013-07-15 09:07:00,
2013-07-15 05:12:00,68.9,67.2,30.36,NNE,23,0.9,1.8,94,0.00,,,0.01,WUHU216HW,2013-07-15 09:12:00,
2013-07-15 05:17:00,68.8,67.0,30.36,North,0,2.5,2.5,94,0.00,,,0.01,WUHU216HW,2013-07-15 09:17:00,
2013-07-15 05:22:00,68.8,67.0,30.36,North,0,2.5,2.5,94,0.00,,,0.01,WUHU216HW,2013-07-15 09:22:00,
2013-07-15 05:27:00,68.8,67.0,30.36,North,11,1.7,2.5,94,0.00,,,0.01,WUHU216HW,2013-07-15 09:27:00,
2013-07-15 05:32:00,68.8,67.0,30.36,NNE,23,0.9,2.5,94,0.00,,,0.01,WUHU216HW,2013-07-15 09:32:00,
2013-07-15 05:37:00,68.8,67.0,30.36,NE,45,1.1,1.3,94,0.00,,,0.01,WUHU216HW,2013-07-15 09:37:00,
2013-07-15 05:42:00,68.8,67.0,30.36,NNE,23,1.3,1.3,94,0.00,,,0.01,WUHU216HW,2013-07-15 09:42:00,
2013-07-15 05:47:00,68.6,66.8,30.36,North,2,0.8,1.3,94,0.00,,,0.01,WUHU216HW,2013-07-15 09:47:00,
2013-07-15 05:52:00,68.6,66.8,30.36,NNE,23,0.7,1.3,94,0.00,,,0.01,WUHU216HW,2013-07-15 09:52:00,
2013-07-15 05:57:00,68.6,66.8,30.36,NE,45,2.0,2.0,94,0.00,,,0.01,WUHU216HW,2013-07-15 09:57:00,
2013-07-15 06:02:00,68.6,66.8,30.37,NNE,23,1.8,2.0,94,0.00,,,0.01,WUHU216HW,2013-07-15 10:02:00,
2013-07-15 06:07:00,68.4,66.6,30.37,NNE,23,2.5,2.5,94,0.00,,,0.01,WUHU216HW,2013-07-15 10:07:00,
2013-07-15 06:12:00,68.6,66.8,30.37,NE,45,1.1,2.5,94,0.00,,,0.01,WUHU216HW,2013-07-15 10:12:00,
2013-07-15 06:17:00,68.6,66.8,30.37,NE,42,1.0,2.5,94,0.00,,,0.01,WUHU216HW,2013-07-15 10:17:00,
2013-07-15 06:22:00,68.6,66.8,30.37,NNE,23,1.6,1.6,94,0.00,,,0.01,WUHU216HW,2013-07-15 10:22:00,
2013-07-15 06:27:00,68.6,66.8,30.37,NNE,20,1.2,1.6,94,0.00,,,0.01,WUHU216HW,2013-07-15 10:27:00,
2013-07-15 06:32:00,68.6,66.8,30.37,North,0,1.1,1.6,94,0.00,,,0.01,WUHU216HW,2013-07-15 10:32:00,
2013-07-15 06:37:00,68.6,66.8,30.38,NNE,23,0.4,1.1,94,0.00,,,0.01,WUHU216HW,2013-07-15 10:37:00,
2013-07-15 06:42:00,68.4,66.6,30.38,NNE,23,0.4,1.1,94,0.00,,,0.01,WUHU216HW,2013-07-15 10:42:00,
2013-07-15 06:47:00,68.6,66.8,30.38,NE,45,0.0,0.4,94,0.00,,,0.01,WUHU216HW,2013-07-15 10:47:00,
2013-07-15 06:52:00,68.8,67.0,30.38,North,0,0.0,0.0,94,0.00,,,0.01,WUHU216HW,2013-07-15 10:52:00,
2013-07-15 06:57:00,68.8,67.0,30.38,North,0,0.0,0.0,94,0.00,,,0.01,WUHU216HW,2013-07-15 10:57:00,
2013-07-15 07:02:00,68.9,67.2,30.38,NNE,23,1.1,1.1,94,0.00,,,0.01,WUHU216HW,2013-07-15 11:02:00,
2013-07-15 07:07:00,69.1,67.3,30.38,NNE,30,0.7,1.1,94,0.00,,,0.01,WUHU216HW,2013-07-15 11:07:00,
2013-07-15 07:12:00,69.1,67.3,30.38,North,0,0.0,1.1,94,0.00,,,0.01,WUHU216HW,2013-07-15 11:12:00,
2013-07-15 07:17:00,69.5,67.7,30.38,NE,45,2.0,2.0,94,0.00,,,0.01,WUHU216HW,2013-07-15 11:17:00,
2013-07-15 07:22:00,69.7,67.9,30.38,NNE,23,1.8,2.0,94,0.00,,,0.01,WUHU216HW,2013-07-15 11:22:00,
2013-07-15 07:27:00,69.7,67.9,30.39,NNE,23,1.8,2.0,94,0.00,,,0.01,WUHU216HW,2013-07-15 11:27:00,
2013-07-15 07:32:00,69.8,68.1,30.39,North,0,1.1,1.8,94,0.00,,,0.01,WUHU216HW,2013-07-15 11:32:00,
2013-07-15 07:37:00,69.8,68.1,30.39,NE,45,1.6,1.8,94,0.00,,,0.01,WUHU216HW,2013-07-15 11:37:00,
2013-07-15 07:42:00,70.2,68.4,30.39,NNE,23,1.3,1.6,94,0.00,,,0.01,WUHU216HW,2013-07-15 11:42:00,
2013-07-15 07:47:00,70.4,68.6,30.39,NE,45,0.9,1.6,94,0.00,,,0.01,WUHU216HW,2013-07-15 11:47:00,
2013-07-15 07:52:00,70.4,68.6,30.39,NE,45,0.9,1.3,94,0.00,,,0.01,WUHU216HW,2013-07-15 11:52:00,
2013-07-15 07:57:00,70.9,69.1,30.39,North,0,0.9,0.9,94,0.00,,,0.01,WUHU216HW,2013-07-15 11:57:00,
2013-07-15 08:02:00,71.3,69.5,30.39,North,0,0.9,0.9,94,0.00,,,0.01,WUHU216HW,2013-07-15 12:02:00,
2013-07-15 08:07:00,71.6,69.9,30.39,North,0,1.6,1.6,94,0.00,,,0.01,WUHU216HW,2013-07-15 12:07:00,
2013-07-15 08:12:00,72.2,70.4,30.39,NE,45,0.7,1.6,94,0.00,,,0.01,WUHU216HW,2013-07-15 12:12:00,
2013-07-15 08:17:00,72.4,70.6,30.39,ENE,68,0.4,1.6,94,0.00,,,0.01,WUHU216HW,2013-07-15 12:17:00,
2013-07-15 08:22:00,72.9,71.1,30.39,ENE,68,1.3,1.3,94,0.00,,,0.01,WUHU216HW,2013-07-15 12:22:00,
2013-07-15 08:27:00,72.7,70.6,30.39,ENE,68,1.8,1.8,93,0.00,,,0.01,WUHU216HW,2013-07-15 12:27:00,
2013-07-15 08:32:00,72.7,70.6,30.39,ENE,68,1.8,1.8,93,0.00,,,0.01,WUHU216HW,2013-07-15 12:32:00,
2013-07-15 08:37:00,73.1,70.9,30.39,ESE,113,0.7,1.8,93,0.00,,,0.01,WUHU216HW,2013-07-15 12:37:00,
2013-07-15 08:42:00,73.3,71.1,30.40,NE,45,1.6,1.6,93,0.00,,,0.01,WUHU216HW,2013-07-15 12:42:00,
2013-07-15 08:47:00,73.4,71.7,30.40,ESE,113,0.4,1.6,94,0.00,,,0.01,WUHU216HW,2013-07-15 12:47:00,
2013-07-15 08:52:00,73.6,71.8,30.40,SSE,158,0.9,0.9,94,0.00,,,0.01,WUHU216HW,2013-07-15 12:52:00,
2013-07-15 08:57:00,73.8,72.0,30.40,NE,45,1.8,1.8,94,0.00,,,0.01,WUHU216HW,2013-07-15 12:57:00,
2013-07-15 09:02:00,74.0,72.2,30.40,North,0,1.1,1.8,94,0.00,,,0.01,WUHU216HW,2013-07-15 13:02:00,
2013-07-15 09:07:00,74.2,72.4,30.40,North,0,1.8,1.8,94,0.00,,,0.01,WUHU216HW,2013-07-15 13:07:00,
2013-07-15 09:12:00,74.5,72.4,30.40,NE,45,1.6,1.8,93,0.00,,,0.01,WUHU216HW,2013-07-15 13:12:00,
2013-07-15 09:17:00,74.3,72.2,30.40,NNE,19,3.4,3.6,93,0.00,,,0.01,WUHU216HW,2013-07-15 13:17:00,
2013-07-15 09:22:00,74.3,71.9,30.40,NNW,338,2.0,3.6,92,0.00,,,0.01,WUHU216HW,2013-07-15 13:22:00,
2013-07-15 09:27:00,74.5,72.1,30.40,NE,45,1.1,2.0,92,0.00,,,0.01,WUHU216HW,2013-07-15 13:27:00,
2013-07-15 09:32:00,74.9,72.5,30.40,North,0,1.1,1.1,92,0.00,,,0.01,WUHU216HW,2013-07-15 13:32:00,
2013-07-15 09:37:00,75.1,72.6,30.41,SE,135,0.0,1.1,92,0.00,,,0.01,WUHU216HW,2013-07-15 13:37:00,
2013-07-15 09:42:00,75.4,73.0,30.41,NE,45,0.4,1.1,92,0.00,,,0.01,WUHU216HW,2013-07-15 13:42:00,
2013-07-15 09:48:00,75.6,72.8,30.40,NNW,338,0.4,0.4,91,0.00,,,0.01,WUHU216HW,2013-07-15 13:48:00,
2013-07-15 09:53:00,76.0,73.2,30.40,North,0,1.1,1.1,91,0.00,,,0.01,WUHU216HW,2013-07-15 13:53:00,
2013-07-15 09:58:00,76.3,73.3,30.40,East,90,0.4,1.1,90,0.00,,,0.01,WUHU216HW,2013-07-15 13:58:00,
2013-07-15 10:03:00,76.3,73.3,30.40,SSW,203,0.4,1.1,90,0.00,,,0.01,WUHU216HW,2013-07-15 14:03:00,
2013-07-15 10:08:00,76.7,73.6,30.40,WSW,248,0.9,0.9,90,0.00,,,0.01,WUHU216HW,2013-07-15 14:08:00,
2013-07-15 10:13:00,77.0,73.6,30.40,South,180,2.0,2.0,89,0.00,,,0.01,WUHU216HW,2013-07-15 14:13:00,
2013-07-15 10:18:00,77.8,74.3,30.40,ESE,113,0.7,2.0,89,0.00,,,0.01,WUHU216HW,2013-07-15 14:18:00,
2013-07-15 10:23:00,77.8,74.0,30.40,ESE,113,0.7,2.0,88,0.00,,,0.01,WUHU216HW,2013-07-15 14:23:00,
2013-07-15 10:28:00,77.9,73.8,30.40,WNW,293,1.1,1.1,87,0.00,,,0.01,WUHU216HW,2013-07-15 14:28:00,
2013-07-15 10:33:00,78.1,74.0,30.40,NNW,338,0.4,1.1,87,0.00,,,0.01,WUHU216HW,2013-07-15 14:33:00,
2013-07-15 10:38:00,78.1,73.3,30.40,NNW,338,1.1,1.1,85,0.00,,,0.01,WUHU216HW,2013-07-15 14:38:00,
2013-07-15 10:43:00,79.2,74.4,30.40,North,0,1.3,1.3,85,0.00,,,0.01,WUHU216HW,2013-07-15 14:43:00,
2013-07-15 10:48:00,79.6,74.7,30.40,East,90,1.3,1.3,85,0.00,,,0.01,WUHU216HW,2013-07-15 14:48:00,
2013-07-15 10:53:00,79.9,75.0,30.40,NE,45,0.4,1.3,85,0.00,,,0.01,WUHU216HW,2013-07-15 14:53:00,
2013-07-15 10:58:00,80.3,74.4,30.41,NNE,23,1.6,1.6,82,0.00,,,0.01,WUHU216HW,2013-07-15 14:58:00,
2013-07-15 11:03:00,80.3,74.7,30.41,SE,133,2.8,3.4,83,0.00,,,0.01,WUHU216HW,2013-07-15 15:03:00,
2013-07-15 11:08:00,80.1,74.5,30.41,North,0,1.8,3.4,83,0.00,,,0.01,WUHU216HW,2013-07-15 15:08:00,
2013-07-15 11:13:00,80.5,74.5,30.41,NNW,338,0.7,1.8,82,0.00,,,0.01,WUHU216HW,2013-07-15 15:13:00,
2013-07-15 11:18:00,81.2,74.5,30.41,NE,45,2.2,2.2,80,0.00,,,0.01,WUHU216HW,2013-07-15 15:18:00,
2013-07-15 11:23:00,81.4,74.7,30.41,ENE,68,1.1,2.2,80,0.00,,,0.01,WUHU216HW,2013-07-15 15:23:00,
2013-07-15 11:28:00,81.5,74.4,30.41,ENE,68,0.9,1.1,79,0.00,,,0.01,WUHU216HW,2013-07-15 15:28:00,
2013-07-15 11:34:00,81.4,73.9,30.41,WSW,248,0.4,1.1,78,0.00,,,0.01,WUHU216HW,2013-07-15 15:34:00,
2013-07-15 11:39:00,81.7,74.6,30.41,ENE,68,1.1,1.1,79,0.00,,,0.01,WUHU216HW,2013-07-15 15:39:00,
2013-07-15 11:44:00,82.4,73.7,30.41,North,0,3.8,3.8,75,0.00,,,0.01,WUHU216HW,2013-07-15 15:44:00,
2013-07-15 11:49:00,82.4,74.2,30.41,SE,135,1.1,3.8,76,0.00,,,0.01,WUHU216HW,2013-07-15 15:49:00,
2013-07-15 11:54:00,82.4,74.5,30.41,ENE,68,1.6,3.8,77,0.00,,,0.01,WUHU216HW,2013-07-15 15:54:00,
2013-07-15 11:59:00,82.6,74.7,30.41,SE,135,0.9,1.6,77,0.00,,,0.01,WUHU216HW,2013-07-15 15:59:00,
2013-07-15 12:04:00,83.0,74.6,30.41,North,0,1.3,1.3,76,0.00,,,0.01,WUHU216HW,2013-07-15 16:04:00,
2013-07-15 12:09:00,83.5,73.9,30.41,North,0,2.7,2.7,73,0.00,,,0.01,WUHU216HW,2013-07-15 16:09:00,
2013-07-15 12:14:00,82.8,73.6,30.41,ESE,113,0.4,2.7,74,0.00,,,0.01,WUHU216HW,2013-07-15 16:14:00,
2013-07-15 12:20:00,83.2,74.8,30.41,SSW,203,3.6,3.6,76,0.00,,,0.01,WUHU216HW,2013-07-15 16:20:00,
2013-07-15 12:25:00,83.5,74.7,30.41,North,0,2.0,3.6,75,0.00,,,0.01,WUHU216HW,2013-07-15 16:25:00,
2013-07-15 12:30:00,83.2,73.2,30.41,ENE,68,0.9,3.6,72,0.00,,,0.01,WUHU216HW,2013-07-15 16:30:00,
2013-07-15 12:35:00,82.3,74.0,30.41,WNW,293,0.4,2.0,76,0.00,,,0.01,WUHU216HW,2013-07-15 16:35:00,
2013-07-15 12:40:00,82.4,73.7,30.41,North,352,0.6,0.9,75,0.00,,,0.01,WUHU216HW,2013-07-15 16:40:00,
2013-07-15 12:46:00,83.2,74.4,30.41,North,0,1.6,1.6,75,0.00,,,0.01,WUHU216HW,2013-07-15 16:46:00,
2013-07-15 12:51:00,84.6,74.2,30.41,North,0,3.6,3.6,71,0.00,,,0.01,WUHU216HW,2013-07-15 16:51:00,
2013-07-15 12:56:00,84.6,74.6,30.41,NNE,21,1.8,3.6,72,0.00,,,0.01,WUHU216HW,2013-07-15 16:56:00,
2013-07-15 13:01:00,85.3,76.2,30.41,SSE,152,1.8,3.6,74,0.00,,,0.01,WUHU216HW,2013-07-15 17:01:00,
2013-07-15 13:06:00,86.0,76.1,30.40,SSE,158,1.8,3.1,72,0.00,,,0.01,WUHU216HW,2013-07-15 17:06:00,
2013-07-15 13:12:00,86.0,74.4,30.40,North,0,2.5,2.5,68,0.00,,,0.01,WUHU216HW,2013-07-15 17:12:00,
2013-07-15 13:17:00,84.8,73.5,30.40,ENE,68,0.0,2.7,69,0.00,,,0.01,WUHU216HW,2013-07-15 17:17:00,
2013-07-15 13:22:00,84.8,73.1,30.40,NNE,23,2.0,2.7,68,0.00,,,0.01,WUHU216HW,2013-07-15 17:22:00,
2013-07-15 13:27:00,85.3,74.1,30.39,ENE,68,2.5,2.5,69,0.00,,,0.01,WUHU216HW,2013-07-15 17:27:00,
2013-07-15 13:32:00,85.5,74.3,30.39,ENE,68,0.2,2.5,69,0.00,,,0.01,WUHU216HW,2013-07-15 17:32:00,
2013-07-15 13:37:00,85.7,74.4,30.39,East,90,0.7,2.5,69,0.00,,,0.01,WUHU216HW,2013-07-15 17:37:00,
2013-07-15 13:42:00,85.9,75.1,30.39,ENE,68,0.3,0.9,70,0.00,,,0.01,WUHU216HW,2013-07-15 17:42:00,
2013-07-15 13:47:00,86.0,73.8,30.39,NNW,338,1.8,1.8,67,0.00,,,0.01,WUHU216HW,2013-07-15 17:47:00,
2013-07-15 13:52:00,85.7,74.4,30.38,NNW,338,0.0,1.8,69,0.00,,,0.01,WUHU216HW,2013-07-15 17:52:00,
2013-07-15 13:57:00,85.5,74.7,30.38,NE,45,0.9,1.8,70,0.00,,,0.01,WUHU216HW,2013-07-15 17:57:00,
2013-07-15 14:03:00,85.9,75.1,30.39,ENE,59,0.7,0.9,70,0.00,,,0.01,WUHU216HW,2013-07-15 18:03:00,
2013-07-15 14:08:00,86.8,74.5,30.38,ENE,68,0.4,1.6,67,0.00,,,0.01,WUHU216HW,2013-07-15 18:08:00,
2013-07-15 14:13:00,86.8,74.1,30.37,NE,45,1.6,1.6,66,0.00,,,0.01,WUHU216HW,2013-07-15 18:13:00,
2013-07-15 14:18:00,86.8,74.5,30.37,NW,315,1.3,1.6,67,0.00,,,0.01,WUHU216HW,2013-07-15 18:18:00,
2013-07-15 14:23:00,86.4,72.8,30.37,North,0,4.7,4.7,64,0.00,,,0.01,WUHU216HW,2013-07-15 18:23:00,
2013-07-15 14:28:00,86.2,73.5,30.37,NE,53,2.4,4.7,66,0.00,,,0.01,WUHU216HW,2013-07-15 18:28:00,
2013-07-15 14:33:00,85.9,72.3,30.36,NE,45,1.8,4.7,64,0.00,,,0.01,WUHU216HW,2013-07-15 18:33:00,
2013-07-15 14:38:00,85.5,71.9,30.36,North,0,5.4,5.4,64,0.00,,,0.01,WUHU216HW,2013-07-15 18:38:00,
2013-07-15 14:44:00,86.4,72.8,30.36,ENE,68,2.9,5.4,64,0.00,,,0.01,WUHU216HW,2013-07-15 18:44:00,
2013-07-15 14:49:00,86.4,73.7,30.36,SE,135,0.4,2.9,66,0.00,,,0.01,WUHU216HW,2013-07-15 18:49:00,
2013-07-15 14:54:00,86.9,74.3,30.36,ESE,113,1.1,2.9,66,0.00,,,0.01,WUHU216HW,2013-07-15 18:54:00,
2013-07-15 14:59:00,87.5,73.8,30.36,SE,135,2.7,2.7,64,0.00,,,0.01,WUHU216HW,2013-07-15 18:59:00,
2013-07-15 15:04:00,88.4,73.3,30.36,South,180,2.5,3.4,61,0.00,,,0.01,WUHU216HW,2013-07-15 19:04:00,
2013-07-15 15:09:00,88.2,74.1,30.36,NE,45,1.4,3.4,63,0.00,,,0.01,WUHU216HW,2013-07-15 19:09:00,
2013-07-15 15:15:00,88.6,74.9,30.36,South,180,1.1,2.0,64,0.00,,,0.01,WUHU216HW,2013-07-15 19:15:00,
2013-07-15 15:20:00,89.1,74.4,30.35,SW,225,2.7,2.7,62,0.00,,,0.01,WUHU216HW,2013-07-15 19:20:00,
2013-07-15 15:25:00,89.1,73.0,30.35,North,0,5.1,5.1,59,0.00,,,0.01,WUHU216HW,2013-07-15 19:25:00,
2013-07-15 15:30:00,87.5,73.4,30.35,ESE,113,3.4,6.3,63,0.00,,,0.01,WUHU216HW,2013-07-15 19:30:00,
2013-07-15 15:35:00,87.5,72.5,30.35,East,101,2.3,6.3,61,0.00,,,0.01,WUHU216HW,2013-07-15 19:35:00,
2013-07-15 15:40:00,87.7,71.6,30.35,North,0,4.9,4.9,59,0.00,,,0.01,WUHU216HW,2013-07-15 19:40:00,
2013-07-15 15:45:00,87.7,73.1,30.35,ENE,68,1.8,4.9,62,0.00,,,0.01,WUHU216HW,2013-07-15 19:45:00,
2013-07-15 15:50:00,87.7,72.6,30.35,NNE,23,2.5,5.4,61,0.00,,,0.01,WUHU216HW,2013-07-15 19:50:00,
2013-07-15 15:55:00,86.8,73.1,30.35,NNW,338,1.3,5.4,64,0.00,,,0.01,WUHU216HW,2013-07-15 19:55:00,
2013-07-15 16:00:00,86.6,73.5,30.35,East,79,0.9,2.5,65,0.00,,,0.01,WUHU216HW,2013-07-15 20:00:00,
2013-07-15 16:06:00,86.8,72.6,30.35,North,0,1.3,1.3,63,0.00,,,0.01,WUHU216HW,2013-07-15 20:06:00,
2013-07-15 16:11:00,86.8,72.6,30.34,North,0,1.8,1.8,63,0.00,,,0.01,WUHU216HW,2013-07-15 20:11:00,
2013-07-15 16:16:00,86.9,73.3,30.34,NNE,23,1.8,1.8,64,0.00,,,0.01,WUHU216HW,2013-07-15 20:16:00,
2013-07-15 16:21:00,87.5,73.8,30.34,WNW,293,1.8,1.8,64,0.00,,,0.01,WUHU216HW,2013-07-15 20:21:00,
2013-07-15 16:26:00,87.5,72.9,30.34,ESE,113,2.2,2.2,62,0.00,,,0.01,WUHU216HW,2013-07-15 20:26:00,
2013-07-15 16:32:00,87.3,72.3,30.34,NE,45,4.7,4.7,61,0.00,,,0.01,WUHU216HW,2013-07-15 20:32:00,
2013-07-15 16:37:00,87.1,73.0,30.33,North,0,2.5,4.7,63,0.00,,,0.01,WUHU216HW,2013-07-15 20:37:00,
2013-07-15 16:42:00,87.5,72.9,30.33,ENE,68,1.8,4.7,62,0.00,,,0.01,WUHU216HW,2013-07-15 20:42:00,
2013-07-15 16:48:00,87.1,73.4,30.33,SE,135,0.0,4.3,64,0.00,,,0.01,WUHU216HW,2013-07-15 20:48:00,
2013-07-15 16:53:00,87.5,73.4,30.32,NW,315,1.6,1.8,63,0.00,,,0.01,WUHU216HW,2013-07-15 20:53:00,
2013-07-15 16:58:00,87.5,73.4,30.32,North,0,1.8,1.8,63,0.00,,,0.01,WUHU216HW,2013-07-15 20:58:00,
2013-07-15 17:04:00,88.0,73.9,30.33,NE,45,1.6,1.8,63,0.00,,,0.01,WUHU216HW,2013-07-15 21:04:00,
2013-07-15 17:09:00,88.0,73.9,30.33,ENE,78,0.9,1.8,63,0.00,,,0.01,WUHU216HW,2013-07-15 21:09:00,
2013-07-15 17:14:00,88.2,74.5,30.33,SW,225,0.4,1.6,64,0.00,,,0.01,WUHU216HW,2013-07-15 21:14:00,
2013-07-15 17:19:00,88.2,74.1,30.33,SE,135,0.9,0.9,63,0.00,,,0.01,WUHU216HW,2013-07-15 21:19:00,
2013-07-15 17:24:00,88.2,74.1,30.33,NNE,23,0.0,0.9,63,0.00,,,0.01,WUHU216HW,2013-07-15 21:24:00,
2013-07-15 17:29:00,87.8,72.4,30.33,North,0,1.8,1.8,60,0.00,,,0.01,WUHU216HW,2013-07-15 21:29:00,
2013-07-15 17:34:00,87.3,72.7,30.32,South,180,1.8,1.8,62,0.00,,,0.01,WUHU216HW,2013-07-15 21:34:00,
2013-07-15 17:39:00,87.7,74.0,30.33,South,180,1.1,1.8,64,0.00,,,0.01,WUHU216HW,2013-07-15 21:39:00,
2013-07-15 17:44:00,87.7,73.1,30.33,NNW,327,0.8,1.8,62,0.00,,,0.01,WUHU216HW,2013-07-15 21:44:00,
2013-07-15 17:50:00,87.1,73.0,30.32,ESE,113,1.6,1.6,63,0.00,,,0.01,WUHU216HW,2013-07-15 21:50:00,
2013-07-15 17:55:00,87.1,73.0,30.32,East,90,1.6,2.2,63,0.00,,,0.01,WUHU216HW,2013-07-15 21:55:00,
2013-07-15 18:00:00,87.1,73.4,30.32,SE,135,1.3,2.2,64,0.00,,,0.01,WUHU216HW,2013-07-15 22:00:00,
2013-07-15 18:05:00,86.9,73.3,30.32,NNE,23,2.4,2.5,64,0.00,,,0.01,WUHU216HW,2013-07-15 22:05:00,
2013-07-15 18:10:00,86.8,73.1,30.32,East,90,0.9,2.5,64,0.00,,,0.01,WUHU216HW,2013-07-15 22:10:00,
2013-07-15 18:15:00,86.4,73.3,30.32,North,0,0.5,1.1,65,0.00,,,0.01,WUHU216HW,2013-07-15 22:15:00,
2013-07-15 18:20:00,86.2,73.1,30.32,NNE,23,1.8,1.8,65,0.00,,,0.01,WUHU216HW,2013-07-15 22:20:00,
2013-07-15 18:25:00,86.0,73.4,30.32,ENE,68,0.7,1.8,66,0.00,,,0.01,WUHU216HW,2013-07-15 22:25:00,
2013-07-15 18:31:00,86.2,73.5,30.33,SE,135,0.7,1.8,66,0.00,,,0.01,WUHU216HW,2013-07-15 22:31:00,
2013-07-15 18:36:00,86.4,74.2,30.33,NE,45,1.3,1.8,67,0.00,,,0.01,WUHU216HW,2013-07-15 22:36:00,
2013-07-15 18:41:00,86.6,74.4,30.33,ESE,113,0.4,1.3,67,0.00,,,0.01,WUHU216HW,2013-07-15 22:41:00,
2013-07-15 18:46:00,86.4,74.2,30.33,SE,135,0.4,0.9,67,0.00,,,0.01,WUHU216HW,2013-07-15 22:46:00,
2013-07-15 18:51:00,86.8,74.5,30.34,NNW,338,0.2,0.9,67,0.00,,,0.01,WUHU216HW,2013-07-15 22:51:00,
2013-07-15 18:56:00,86.9,74.7,30.34,SE,135,0.4,0.9,67,0.00,,,0.01,WUHU216HW,2013-07-15 22:56:00,
2013-07-15 19:01:00,87.1,74.9,30.33,NE,45,0.0,0.9,67,0.00,,,0.01,WUHU216HW,2013-07-15 23:01:00,
2013-07-15 19:06:00,86.8,74.5,30.33,NNW,338,0.2,0.4,67,0.00,,,0.01,WUHU216HW,2013-07-15 23:06:00,
2013-07-15 19:11:00,86.0,73.8,30.33,NE,45,0.4,0.4,67,0.00,,,0.01,WUHU216HW,2013-07-15 23:11:00,
2013-07-15 19:16:00,85.3,73.2,30.33,North,0,0.0,0.4,67,0.00,,,0.01,WUHU216HW,2013-07-15 23:16:00,
2013-07-15 19:22:00,85.0,73.3,30.33,NNW,338,0.0,0.4,68,0.00,,,0.01,WUHU216HW,2013-07-15 23:22:00,
2013-07-15 19:27:00,84.8,74.0,30.33,NE,45,0.0,0.0,70,0.00,,,0.01,WUHU216HW,2013-07-15 23:27:00,
2013-07-15 19:32:00,85.3,74.5,30.33,North,0,0.0,0.0,70,0.00,,,0.01,WUHU216HW,2013-07-15 23:32:00,
2013-07-15 19:37:00,85.1,74.3,30.33,NNW,338,0.0,0.0,70,0.00,,,0.01,WUHU216HW,2013-07-15 23:37:00,
2013-07-15 19:42:00,84.6,74.2,30.33,SE,135,0.4,0.4,71,0.00,,,0.01,WUHU216HW,2013-07-15 23:42:00,
2013-07-15 19:47:00,84.2,74.3,30.34,SE,135,0.4,0.4,72,0.00,,,0.01,WUHU216HW,2013-07-15 23:47:00,
2013-07-15 19:52:00,83.5,73.5,30.33,NE,45,0.0,0.4,72,0.00,,,0.01,WUHU216HW,2013-07-15 23:52:00,
2013-07-15 19:58:00,83.2,73.2,30.33,NNE,23,0.0,0.0,72,0.00,,,0.01,WUHU216HW,2013-07-15 23:58:00,
2013-07-15 20:03:00,82.6,73.4,30.33,WSW,248,0.0,0.0,74,0.00,,,0.01,WUHU216HW,2013-07-16 00:03:00,
2013-07-15 20:08:00,82.1,73.0,30.33,NNW,338,0.0,0.0,74,0.00,,,0.01,WUHU216HW,2013-07-16 00:08:00,
2013-07-15 20:13:00,81.7,72.6,30.33,NNW,338,0.0,0.0,74,0.00,,,0.01,WUHU216HW,2013-07-16 00:13:00,
2013-07-15 20:19:00,81.2,72.6,30.33,North,0,0.0,0.0,75,0.00,,,0.01,WUHU216HW,2013-07-16 00:19:00,
2013-07-15 20:24:00,81.0,72.4,30.33,North,0,0.0,0.0,75,0.00,,,0.01,WUHU216HW,2013-07-16 00:24:00,
2013-07-15 20:29:00,80.6,72.0,30.33,North,0,0.0,0.0,75,0.00,,,0.01,WUHU216HW,2013-07-16 00:29:00,
2013-07-15 20:34:00,80.3,72.0,30.33,North,0,0.0,0.0,76,0.00,,,0.01,WUHU216HW,2013-07-16 00:34:00,
2013-07-15 20:39:00,79.9,71.6,30.33,North,0,0.0,0.0,76,0.00,,,0.01,WUHU216HW,2013-07-16 00:39:00,
2013-07-15 20:44:00,79.4,71.6,30.33,NNE,23,0.4,0.4,77,0.00,,,0.01,WUHU216HW,2013-07-16 00:44:00,
2013-07-15 20:49:00,79.4,71.9,30.34,SSE,158,0.7,0.7,78,0.00,,,0.01,WUHU216HW,2013-07-16 00:49:00,
2013-07-15 20:55:00,79.0,71.6,30.35,SE,135,3.1,3.1,78,0.00,,,0.01,WUHU216HW,2013-07-16 00:55:00,
2013-07-15 21:00:00,78.7,71.7,30.35,SE,134,6.8,6.9,79,0.00,,,0.01,WUHU216HW,2013-07-16 01:00:00,
2013-07-15 21:05:00,78.3,71.6,30.35,South,180,5.1,6.9,80,0.00,,,0.01,WUHU216HW,2013-07-16 01:05:00,
2013-07-15 21:10:00,77.9,71.3,30.35,SSE,158,2.7,5.1,80,0.01,,,0.02,WUHU216HW,2013-07-16 01:10:00,
2013-07-15 21:16:00,77.4,70.7,30.35,ESE,113,1.8,5.1,80,0.02,,,0.03,WUHU216HW,2013-07-16 01:16:00,
2013-07-15 21:21:00,76.9,70.6,30.35,South,180,4.0,4.0,81,0.02,,,0.03,WUHU216HW,2013-07-16 01:21:00,
2013-07-15 21:26:00,76.0,70.1,30.35,ESE,114,0.5,4.0,82,0.02,,,0.03,WUHU216HW,2013-07-16 01:26:00,
2013-07-15 21:31:00,75.8,69.9,30.35,SSE,158,1.1,1.1,82,0.02,,,0.03,WUHU216HW,2013-07-16 01:31:00,
2013-07-15 21:36:00,75.6,70.1,30.35,SW,225,0.9,1.1,83,0.02,,,0.03,WUHU216HW,2013-07-16 01:36:00,
2013-07-15 21:41:00,75.2,69.8,30.35,SW,215,1.8,2.2,83,0.02,,,0.03,WUHU216HW,2013-07-16 01:41:00,
2013-07-15 21:46:00,74.9,69.8,30.35,WSW,256,0.8,2.2,84,0.02,,,0.03,WUHU216HW,2013-07-16 01:46:00,
2013-07-15 21:52:00,74.7,69.6,30.35,WSW,248,0.0,1.6,84,0.02,,,0.03,WUHU216HW,2013-07-16 01:52:00,
2013-07-15 21:57:00,74.5,69.4,30.36,West,270,0.0,0.7,84,0.02,,,0.03,WUHU216HW,2013-07-16 01:57:00,
2013-07-15 22:02:00,74.5,69.8,30.36,NW,315,0.0,0.0,85,0.02,,,0.03,WUHU216HW,2013-07-16 02:02:00,
2013-07-15 22:07:00,74.2,69.4,30.36,NNW,338,0.0,0.0,85,0.02,,,0.03,WUHU216HW,2013-07-16 02:07:00,
2013-07-15 22:12:00,74.0,69.2,30.36,NNW,338,0.0,0.0,85,0.01,,,0.03,WUHU216HW,2013-07-16 02:12:00,
2013-07-15 22:17:00,74.0,69.2,30.36,NNE,23,0.7,0.7,85,0.00,,,0.03,WUHU216HW,2013-07-16 02:17:00,
2013-07-15 22:22:00,73.8,69.4,30.36,NNE,23,0.0,0.7,86,0.00,,,0.03,WUHU216HW,2013-07-16 02:22:00,
2013-07-15 22:27:00,73.6,69.2,30.36,NNE,23,0.0,0.7,86,0.00,,,0.03,WUHU216HW,2013-07-16 02:27:00,
2013-07-15 22:32:00,73.4,69.4,30.36,NNE,23,0.0,0.0,87,0.00,,,0.03,WUHU216HW,2013-07-16 02:32:00,
2013-07-15 22:37:00,73.3,69.2,30.36,NNE,23,0.0,0.0,87,0.00,,,0.03,WUHU216HW,2013-07-16 02:37:00,
2013-07-15 22:42:00,73.1,69.0,30.37,NNE,23,0.0,0.0,87,0.00,,,0.03,WUHU216HW,2013-07-16 02:42:00,
2013-07-15 22:47:00,72.9,68.5,30.36,NNE,23,0.0,0.0,86,0.00,,,0.03,WUHU216HW,2013-07-16 02:47:00,
2013-07-15 22:52:00,72.7,68.3,30.37,NNE,23,0.0,0.0,86,0.00,,,0.03,WUHU216HW,2013-07-16 02:52:00,
2013-07-15 22:57:00,72.7,68.7,30.37,NNE,23,0.0,0.0,87,0.00,,,0.03,WUHU216HW,2013-07-16 02:57:00,
2013-07-15 23:03:00,72.7,68.9,30.37,NNE,23,0.0,0.0,88,0.00,,,0.03,WUHU216HW,2013-07-16 03:03:00,
2013-07-15 23:08:00,72.7,68.9,30.37,NNE,23,0.9,0.9,88,0.00,,,0.03,WUHU216HW,2013-07-16 03:08:00,
2013-07-15 23:13:00,72.5,68.8,30.37,North,0,0.0,0.9,88,0.00,,,0.03,WUHU216HW,2013-07-16 03:13:00,
2013-07-15 23:18:00,72.5,68.8,30.37,North,0,0.0,0.9,88,0.00,,,0.03,WUHU216HW,2013-07-16 03:18:00,
2013-07-15 23:23:00,72.5,68.8,30.37,North,0,0.0,0.0,88,0.00,,,0.03,WUHU216HW,2013-07-16 03:23:00,
2013-07-15 23:28:00,72.5,68.8,30.37,North,0,0.0,0.0,88,0.00,,,0.03,WUHU216HW,2013-07-16 03:28:00,
2013-07-15 23:33:00,72.5,68.8,30.37,North,0,0.0,0.0,88,0.00,,,0.03,WUHU216HW,2013-07-16 03:33:00,
2013-07-15 23:38:00,72.4,68.6,30.37,North,0,0.0,0.0,88,0.00,,,0.03,WUHU216HW,2013-07-16 03:38:00,
2013-07-15 23:43:00,72.4,68.6,30.37,North,0,0.0,0.0,88,0.00,,,0.03,WUHU216HW,2013-07-16 03:43:00,
2013-07-15 23:48:00,72.2,68.4,30.37,North,0,0.0,0.0,88,0.00,,,0.03,WUHU216HW,2013-07-16 03:48:00,
2013-07-15 23:53:00,72.2,68.4,30.37,North,0,0.0,0.0,88,0.00,,,0.03,WUHU216HW,2013-07-16 03:53:00,
2013-07-15 23:58:00,72.2,68.4,30.37,North,0,0.0,0.0,88,0.00,,,0.03,WUHU216HW,2013-07-16 03:58:00,